Time;durP1;ratioP1;P1;durP2;ratioP2;P2;SDS_P1;SDS_P2;PMS_P1;PMS_P2;Temp;Humidity;BMP_temperature;BMP_pressure;BME280_temperature;BME280_humidity;BME280_pressure;Samples;Min_cycle;Max_cycle;Signal;HPM_P1;HPM_P2
2022/06/13 00:02:07;;;;;;;7.68;4.13;;;;;;;13.78;100.00;101985.59;5236923;28;20045;-68
2022/06/13 00:04:38;;;;;;;9.32;4.43;;;;;;;13.75;100.00;101983.22;5234520;28;20857;-68
2022/06/13 00:07:09;;;;;;;7.47;4.20;;;;;;;13.71;100.00;101979.13;5234329;28;20021;-68
2022/06/13 00:09:41;;;;;;;7.28;4.25;;;;;;;13.72;100.00;101983.47;5235748;28;20484;-69
2022/06/13 00:12:12;;;;;;;11.02;3.85;;;;;;;13.68;100.00;101975.94;5236941;28;20454;-68
2022/06/13 00:14:43;;;;;;;9.10;3.95;;;;;;;13.66;100.00;101968.13;5236280;28;20033;-68
2022/06/13 00:17:14;;;;;;;9.43;4.20;;;;;;;13.63;100.00;101973.66;5235120;28;20084;-68
2022/06/13 00:19:46;;;;;;;8.70;5.40;;;;;;;13.68;100.00;101973.31;5216270;28;20484;-68
2022/06/13 00:22:18;;;;;;;8.05;3.97;;;;;;;13.63;100.00;101966.56;5235726;28;20037;-69
2022/06/13 00:24:49;;;;;;;9.27;4.32;;;;;;;13.63;100.00;101956.03;5235549;28;20025;-68
2022/06/13 00:27:20;;;;;;;9.02;5.05;;;;;;;13.60;100.00;101956.31;5235768;28;20064;-68
2022/06/13 00:29:52;;;;;;;8.80;4.38;;;;;;;13.69;100.00;101965.25;5236161;28;20021;-68
2022/06/13 00:32:23;;;;;;;9.40;4.55;;;;;;;13.76;100.00;101965.63;5235361;28;20022;-68
2022/06/13 00:34:55;;;;;;;10.70;4.80;;;;;;;13.75;100.00;101956.88;5235706;28;20444;-68
2022/06/13 00:37:27;;;;;;;9.02;4.82;;;;;;;13.78;100.00;101961.03;5234941;28;20033;-69
2022/06/13 00:39:58;;;;;;;10.27;4.72;;;;;;;13.76;100.00;101952.44;5235297;28;20025;-69
2022/06/13 00:42:29;;;;;;;7.25;4.22;;;;;;;13.73;100.00;101948.25;5235578;28;20150;-68
2022/06/13 00:45:12;;;;;;;9.80;4.70;;;;;;;13.91;100.00;101956.47;5235893;28;20099;-68
2022/06/13 00:47:46;;;;;;;10.20;4.50;;;;;;;13.87;100.00;101952.41;5234827;28;20053;-68
2022/06/13 00:50:43;;;;;;;8.32;4.45;;;;;;;13.91;100.00;101953.00;5235585;28;20548;-68
2022/06/13 00:53:21;;;;;;;11.10;4.90;;;;;;;13.96;100.00;101953.47;5234885;28;20034;-68
2022/06/13 00:56:15;;;;;;;9.32;4.45;;;;;;;14.07;100.00;101948.16;5235541;28;20033;-69
2022/06/13 00:58:52;;;;;;;12.02;5.00;;;;;;;14.00;100.00;101949.59;5216876;28;20033;-69
2022/06/13 01:01:24;;;;;;;10.35;4.40;;;;;;;13.94;100.00;101950.09;5235414;28;20102;-69
2022/06/13 01:03:57;;;;;;;10.33;5.43;;;;;;;13.91;100.00;101945.94;5234714;28;20033;-69
2022/06/13 01:06:33;;;;;;;9.63;5.28;;;;;;;13.98;100.00;101954.16;5235434;28;20366;-69
2022/06/13 01:09:08;;;;;;;11.68;4.97;;;;;;;13.98;100.00;101946.25;5216452;28;20697;-69
2022/06/13 01:11:50;;;;;;;11.63;5.03;;;;;;;14.02;100.00;101940.63;5234940;28;20022;-69
2022/06/13 01:14:39;;;;;;;9.48;4.78;;;;;;;14.18;100.00;101957.81;5235182;28;20032;-69
2022/06/13 01:18:07;;;;;;;12.98;4.97;;;;;;;14.33;100.00;101956.53;5234707;28;20049;-69
2022/06/13 01:21:03;;;;;;;11.13;4.95;;;;;;;14.33;100.00;101953.91;5235685;28;20035;-69
2022/06/13 01:24:01;;;;;;;8.85;4.80;;;;;;;14.32;100.00;101942.53;5234302;28;20033;-69
2022/06/13 01:26:58;;;;;;;10.23;5.55;;;;;;;14.39;100.00;101939.38;5232822;28;20041;-69
2022/06/13 01:29:59;;;;;;;10.68;5.22;;;;;;;14.43;100.00;101941.63;5234441;28;20056;-69
2022/06/13 01:32:58;;;;;;;12.85;5.93;;;;;;;14.38;100.00;101949.06;5234556;28;20485;-69
2022/06/13 01:35:46;;;;;;;11.85;5.70;;;;;;;14.38;100.00;101940.34;5235204;28;20014;-69
2022/06/13 01:38:39;;;;;;;11.27;5.90;;;;;;;14.35;100.00;101925.59;5234437;28;20037;-69
2022/06/13 01:41:15;;;;;;;10.13;5.35;;;;;;;14.36;100.00;101932.56;5234839;28;20124;-69
2022/06/13 01:44:11;;;;;;;11.13;5.20;;;;;;;14.51;100.00;101920.78;5216461;28;20124;-69
2022/06/13 01:46:51;;;;;;;11.68;5.63;;;;;;;14.43;100.00;101923.16;5226557;28;20030;-69
2022/06/13 01:49:33;;;;;;;11.23;5.40;;;;;;;14.42;100.00;101921.50;5234586;28;20029;-69
2022/06/13 01:52:31;;;;;;;8.82;4.88;;;;;;;14.37;100.00;101923.69;5234189;28;20029;-69
2022/06/13 01:55:28;;;;;;;9.48;4.93;;;;;;;14.50;100.00;101923.50;5215916;28;20029;-69
2022/06/13 01:58:18;;;;;;;11.25;5.15;;;;;;;14.50;100.00;101929.63;5235467;28;20033;-69
2022/06/13 02:00:59;;;;;;;11.30;5.05;;;;;;;14.36;100.00;101927.31;5235743;28;20041;-69
2022/06/13 02:03:58;;;;;;;11.57;5.50;;;;;;;14.56;100.00;101930.91;5220498;28;20116;-69
2022/06/13 02:06:37;;;;;;;11.70;5.03;;;;;;;14.46;100.00;101927.34;5237366;28;20033;-69
2022/06/13 02:09:17;;;;;;;11.50;5.32;;;;;;;14.43;100.00;101932.88;5238877;28;20018;-69
2022/06/13 02:11:52;;;;;;;12.65;5.25;;;;;;;14.39;100.00;101916.47;5238503;28;20025;-69
2022/06/13 02:14:31;;;;;;;8.88;5.18;;;;;;;14.45;100.00;101929.16;5237253;28;20148;-69
2022/06/13 02:17:11;;;;;;;11.07;5.25;;;;;;;14.46;100.00;101949.28;5236832;28;20056;-69
2022/06/13 02:19:59;;;;;;;8.73;4.97;;;;;;;14.56;100.00;101942.31;5239041;28;20052;-69
2022/06/13 02:22:31;;;;;;;11.30;5.53;;;;;;;14.40;100.00;101943.69;5237604;28;20033;-69
2022/06/13 02:25:08;;;;;;;10.93;5.97;;;;;;;14.45;100.00;101941.50;5238419;28;20028;-69
2022/06/13 02:27:41;;;;;;;10.98;6.10;;;;;;;14.43;100.00;101944.25;5238214;28;20052;-69
2022/06/13 02:30:17;;;;;;;8.50;5.47;;;;;;;14.44;100.00;101931.94;5238642;28;20021;-69
2022/06/13 02:32:55;;;;;;;11.43;5.88;;;;;;;14.53;100.00;101937.28;5218673;28;20087;-69
2022/06/13 02:35:35;;;;;;;10.50;6.55;;;;;;;14.59;100.00;101930.66;5220149;28;20091;-69
2022/06/13 02:38:12;;;;;;;13.38;5.68;;;;;;;14.56;100.00;101930.91;5238023;28;20017;-69
2022/06/13 02:40:55;;;;;;;9.70;6.07;;;;;;;14.64;100.00;101932.91;5237547;28;20080;-69
2022/06/13 02:43:33;;;;;;;11.20;5.83;;;;;;;14.61;100.00;101918.16;5238028;28;20068;-69
2022/06/13 02:46:12;;;;;;;11.38;5.57;;;;;;;14.58;100.00;101921.94;5238426;28;20481;-69
2022/06/13 02:48:57;;;;;;;10.70;6.05;;;;;;;14.63;100.00;101916.25;5235697;28;20030;-69
2022/06/13 02:51:59;;;;;;;11.18;6.20;;;;;;;14.64;100.00;101914.44;5237673;28;20191;-69
2022/06/13 02:54:44;;;;;;;13.63;6.45;;;;;;;14.58;100.00;101918.44;5237292;28;20041;-69
2022/06/13 02:57:35;;;;;;;12.73;6.20;;;;;;;14.53;100.00;101931.19;5237735;28;20029;-69
2022/06/13 03:00:27;;;;;;;14.13;6.30;;;;;;;14.51;100.00;101930.47;5237479;28;20104;-69
2022/06/13 03:03:08;;;;;;;11.57;6.53;;;;;;;14.66;100.00;101925.69;5192600;28;20057;-69
2022/06/13 03:05:54;;;;;;;15.88;6.50;;;;;;;14.65;100.00;101913.47;5236129;28;20041;-69
2022/06/13 03:08:50;;;;;;;13.68;6.20;;;;;;;14.69;100.00;101917.53;5236705;28;20151;-69
2022/06/13 03:11:45;;;;;;;11.30;6.18;;;;;;;14.52;100.00;101916.31;5236641;28;20043;-69
2022/06/13 03:14:38;;;;;;;12.43;6.63;;;;;;;14.69;100.00;101920.16;5237322;28;20026;-69
2022/06/13 03:17:14;;;;;;;13.45;6.15;;;;;;;14.46;100.00;101922.91;5208518;28;20397;-69
2022/06/13 03:20:08;;;;;;;15.32;6.22;;;;;;;14.66;100.00;101929.19;5227270;28;20404;-69
2022/06/13 03:23:03;;;;;;;13.05;6.35;;;;;;;14.62;100.00;101933.03;5223890;28;20061;-69
2022/06/13 03:25:34;;;;;;;13.77;6.72;;;;;;;14.41;100.00;101935.66;5227838;28;20033;-69
2022/06/13 03:28:17;;;;;;;13.33;6.63;;;;;;;14.46;100.00;101930.81;5221610;28;20028;-69
2022/06/13 03:30:52;;;;;;;;;;;;;;;14.91;100.00;101940.28;5227575;28;20520;-69
2022/06/13 03:33:42;;;;;;;14.25;6.35;;;;;;;14.46;100.00;101925.53;5232319;28;19920;-69
2022/06/13 03:36:30;;;;;;;15.13;7.00;;;;;;;14.47;100.00;101921.09;5228030;28;20147;-69
2022/06/13 03:39:07;;;;;;;13.80;6.25;;;;;;;14.35;100.00;101934.34;5224852;28;20512;-69
2022/06/13 03:41:50;;;;;;;15.07;6.80;;;;;;;14.29;100.00;101944.59;5226139;28;20068;-69
2022/06/13 03:44:44;;;;;;;15.40;6.67;;;;;;;14.32;100.00;101945.16;5227242;28;20026;-69
2022/06/13 03:47:30;;;;;;;15.77;7.68;;;;;;;14.24;100.00;101952.03;5224997;28;20161;-69
2022/06/13 03:50:08;;;;;;;17.95;6.97;;;;;;;14.23;100.00;101951.19;5224527;28;20033;-69
2022/06/13 03:52:45;;;;;;;13.88;7.05;;;;;;;14.14;100.00;101946.69;5224539;28;20030;-69
2022/06/13 03:55:23;;;;;;;14.75;6.60;;;;;;;14.12;100.00;101956.50;5229322;28;20112;-69
2022/06/13 03:58:06;;;;;;;10.93;6.50;;;;;;;14.12;100.00;101951.22;5227390;28;20400;-69
2022/06/13 04:01:01;;;;;;;15.45;7.40;;;;;;;14.07;100.00;101946.34;5225528;28;20087;-69
2022/06/13 04:03:32;;;;;;;11.73;6.72;;;;;;;14.04;100.00;101953.66;5210024;28;20124;-69
2022/06/13 04:06:25;;;;;;;12.25;6.80;;;;;;;14.01;100.00;101962.66;5227615;28;20107;-69
2022/06/13 04:08:58;;;;;;;13.43;7.28;;;;;;;13.93;100.00;101946.63;5219513;28;20080;-69
2022/06/13 04:11:44;;;;;;;14.32;7.38;;;;;;;13.97;100.00;101963.88;5225231;28;20037;-69
2022/06/13 04:14:43;;;;;;;15.88;7.68;;;;;;;14.19;100.00;101965.59;5225719;28;20018;-69
2022/06/13 04:17:38;;;;;;;12.00;6.95;;;;;;;14.05;100.00;101964.09;5225816;28;20057;-69
2022/06/13 04:20:39;;;;;;;14.43;7.05;;;;;;;14.06;100.00;101957.84;5227072;28;20025;-69
2022/06/13 04:23:25;;;;;;;16.30;6.85;;;;;;;14.01;100.00;101959.19;5203495;28;20120;-69
2022/06/13 04:26:12;;;;;;;12.85;6.50;;;;;;;13.92;100.00;101975.75;5226475;28;20025;-69
2022/06/13 04:29:01;;;;;;;14.98;7.22;;;;;;;14.03;100.00;101971.28;5223398;28;20033;-69
2022/06/13 04:31:34;;;;;;;15.07;7.78;;;;;;;13.92;100.00;101967.84;5225071;28;20030;-69
2022/06/13 04:34:14;;;;;;;13.55;7.97;;;;;;;14.04;100.00;101972.94;5226279;28;20025;-69
2022/06/13 04:36:47;;;;;;;12.85;8.15;;;;;;;14.00;100.00;101970.69;5224554;28;20030;-69
2022/06/13 04:39:24;;;;;;;14.23;7.45;;;;;;;14.14;100.00;101980.94;5224507;28;20025;-69
2022/06/13 04:41:59;;;;;;;12.10;7.03;;;;;;;14.13;100.00;101976.66;5227683;28;20403;-69
2022/06/13 04:44:33;;;;;;;16.45;7.50;;;;;;;14.17;100.00;101974.56;5223913;28;20022;-69
2022/06/13 04:47:06;;;;;;;14.85;7.97;;;;;;;14.25;100.00;101986.19;5208765;28;20506;-69
2022/06/13 04:49:48;;;;;;;15.77;8.13;;;;;;;14.43;100.00;101985.59;5226807;28;20029;-69
2022/06/13 04:52:25;;;;;;;14.23;7.85;;;;;;;14.37;100.00;101976.41;5224457;28;20108;-69
2022/06/13 04:55:14;;;;;;;14.45;7.55;;;;;;;14.55;100.00;101984.63;5222726;28;20334;-69
2022/06/13 04:57:45;;;;;;;16.33;8.68;;;;;;;14.42;100.00;101983.94;5227536;28;20021;-69
2022/06/13 05:00:17;;;;;;;12.93;8.13;;;;;;;14.51;100.00;101986.69;5227379;28;20506;-69
2022/06/13 05:02:55;;;;;;;15.35;8.45;;;;;;;14.57;100.00;101983.53;5223524;28;20033;-69
2022/06/13 05:05:41;;;;;;;14.98;8.50;;;;;;;14.76;100.00;101990.72;5226083;28;20017;-69
2022/06/13 05:08:25;;;;;;;17.13;8.13;;;;;;;14.80;100.00;101991.31;5221589;28;20025;-70
2022/06/13 05:11:19;;;;;;;17.58;8.93;;;;;;;14.83;100.00;101999.81;5224925;28;20033;-69
2022/06/13 05:13:54;;;;;;;17.45;9.00;;;;;;;14.88;100.00;101988.84;5227992;28;20368;-70
2022/06/13 05:16:54;;;;;;;18.42;8.63;;;;;;;15.07;100.00;101996.88;5228373;28;20068;-69
2022/06/13 05:19:55;;;;;;;17.02;9.30;;;;;;;15.20;100.00;101999.31;5219447;28;20025;-69
2022/06/13 05:22:34;;;;;;;14.00;8.32;;;;;;;15.07;100.00;102002.16;5223723;28;20029;-70
2022/06/13 05:25:20;;;;;;;17.13;9.05;;;;;;;15.13;100.00;102006.09;5225675;28;20035;-69
2022/06/13 05:27:53;;;;;;;18.27;9.57;;;;;;;15.19;100.00;102004.72;5226238;28;20037;-69
2022/06/13 05:30:26;;;;;;;;;;;;;;;15.70;100.00;102007.31;5227378;28;20076;-71
2022/06/13 05:32:57;;;;;;;16.85;8.38;;;;;;;15.35;100.00;102001.59;5223357;28;19909;-69
2022/06/13 05:35:32;;;;;;;16.95;8.77;;;;;;;15.46;100.00;102001.50;5227427;28;20037;-70
2022/06/13 05:38:04;;;;;;;16.85;8.82;;;;;;;15.49;100.00;102009.13;5220689;28;20473;-69
2022/06/13 05:40:36;;;;;;;18.55;9.05;;;;;;;15.59;100.00;102017.94;5221327;28;20072;-69
2022/06/13 05:43:09;;;;;;;20.45;8.43;;;;;;;15.58;100.00;102016.28;5212524;28;20457;-70
2022/06/13 05:45:42;;;;;;;17.17;8.43;;;;;;;15.70;100.00;102025.78;5221315;28;20523;-69
2022/06/13 05:48:16;;;;;;;17.95;8.93;;;;;;;15.85;100.00;102026.25;5209503;28;20352;-70
2022/06/13 05:50:48;;;;;;;19.40;9.02;;;;;;;15.88;100.00;102023.34;5218324;28;20373;-70
2022/06/13 05:53:22;;;;;;;18.30;8.15;;;;;;;15.95;100.00;102023.66;5222869;28;20025;-70
2022/06/13 05:55:59;;;;;;;18.45;8.20;;;;;;;16.00;100.00;102032.00;5218546;28;20496;-70
2022/06/13 05:58:31;;;;;;;19.10;8.48;;;;;;;16.04;100.00;102034.22;5224861;28;20109;-70
2022/06/13 06:01:03;;;;;;;16.48;9.07;;;;;;;16.13;100.00;102034.38;5224101;28;20017;-71
2022/06/13 06:03:34;;;;;;;19.15;8.68;;;;;;;16.27;100.00;102045.38;5223968;28;20179;-71
2022/06/13 06:06:06;;;;;;;16.60;7.70;;;;;;;16.34;100.00;102048.31;5221978;28;20056;-71
2022/06/13 06:08:40;;;;;;;15.48;8.30;;;;;;;16.36;100.00;102043.69;5215367;28;20033;-70
2022/06/13 06:11:11;;;;;;;18.73;8.77;;;;;;;16.42;100.00;102045.81;5221036;28;20029;-69
2022/06/13 06:13:43;;;;;;;15.93;8.07;;;;;;;16.42;100.00;102051.09;5218607;28;20071;-69
2022/06/13 06:16:17;;;;;;;20.55;8.25;;;;;;;16.46;100.00;102062.22;5223649;28;20041;-70
2022/06/13 06:18:49;;;;;;;16.67;8.77;;;;;;;16.40;100.00;102049.56;5232894;28;20033;-70
2022/06/13 06:21:22;;;;;;;17.27;7.63;;;;;;;16.57;100.00;102063.91;5233275;28;20017;-70
2022/06/13 06:23:53;;;;;;;14.13;7.40;;;;;;;16.62;100.00;102065.16;5231748;28;20029;-70
2022/06/13 06:26:28;;;;;;;13.35;6.40;;;;;;;16.62;100.00;102070.44;5233274;28;20022;-70
2022/06/13 06:28:59;;;;;;;20.52;6.93;;;;;;;16.69;100.00;102060.97;5230492;28;20076;-70
2022/06/13 06:31:32;;;;;;;17.20;7.10;;;;;;;16.88;100.00;102065.44;5231696;28;20061;-70
2022/06/13 06:34:03;;;;;;;12.90;5.65;;;;;;;16.87;100.00;102073.53;5234059;28;20018;-70
2022/06/13 06:36:35;;;;;;;12.55;4.63;;;;;;;16.84;100.00;102079.94;5233129;28;20032;-70
2022/06/13 06:39:06;;;;;;;13.70;4.50;;;;;;;16.78;100.00;102067.25;5232208;28;20028;-70
2022/06/13 06:41:37;;;;;;;11.13;3.92;;;;;;;16.78;100.00;102085.78;5231953;28;20035;-71
2022/06/13 06:44:09;;;;;;;15.80;4.28;;;;;;;16.76;100.00;102085.94;5233438;28;20029;-71
2022/06/13 06:46:40;;;;;;;9.35;3.25;;;;;;;16.94;100.00;102085.22;5236556;28;20033;-71
2022/06/13 06:49:11;;;;;;;12.85;4.03;;;;;;;17.09;100.00;102089.09;5237025;28;20029;-71
2022/06/13 06:51:44;;;;;;;11.13;4.53;;;;;;;17.19;100.00;102095.19;5236989;28;20028;-71
2022/06/13 06:59:55;;;;;;;8.75;3.13;;;;;;;17.30;95.57;102110.09;5237274;28;20041;-70
2022/06/13 07:02:28;;;;;;;8.70;2.42;;;;;;;17.30;96.25;102082.78;5231479;28;20430;-70
2022/06/13 07:05:03;;;;;;;9.75;3.20;;;;;;;17.41;95.41;102098.50;5232550;28;20029;-70
2022/06/13 07:07:34;;;;;;;10.13;3.05;;;;;;;17.56;94.35;102101.53;5234163;28;20029;-70
2022/06/13 07:10:07;;;;;;;10.13;2.53;;;;;;;17.52;84.15;102103.63;5234449;28;20028;-70
2022/06/13 07:12:38;;;;;;;8.52;2.60;;;;;;;17.67;84.23;102104.00;5235722;28;20052;-71
2022/06/13 07:15:13;;;;;;;8.65;2.40;;;;;;;17.75;83.16;102102.31;5216454;28;20025;-71
2022/06/13 07:17:45;;;;;;;7.75;2.55;;;;;;;17.83;85.70;102100.72;5232285;28;20136;-70
2022/06/13 07:20:16;;;;;;;8.30;2.65;;;;;;;17.88;80.81;102109.06;5234069;28;20568;-70
2022/06/13 07:22:53;;;;;;;6.07;2.63;;;;;;;18.05;84.62;102108.28;5233178;28;20381;-70
2022/06/13 07:25:28;;;;;;;6.40;2.22;;;;;;;18.20;80.59;102098.84;5234203;28;20032;-71
2022/06/13 07:27:59;;;;;;;7.60;2.78;;;;;;;18.37;82.01;102107.84;5234607;28;20030;-70
2022/06/13 07:30:31;;;;;;;10.40;3.08;;;;;;;18.48;75.11;102109.41;5235287;28;20048;-71
2022/06/13 07:33:02;;;;;;;6.57;2.07;;;;;;;18.68;76.25;102110.09;5234165;28;20021;-70
2022/06/13 07:35:34;;;;;;;10.20;2.85;;;;;;;18.81;75.42;102107.09;5234746;28;20098;-70
2022/06/13 07:38:18;;;;;;;8.27;2.30;;;;;;;18.92;75.25;102112.16;5236257;28;20028;-71
2022/06/13 07:40:54;;;;;;;6.50;2.28;;;;;;;19.01;74.41;102103.25;5234941;28;20083;-70
2022/06/13 07:43:27;;;;;;;8.40;2.75;;;;;;;19.03;75.43;102111.91;5235987;28;20033;-71
2022/06/13 07:46:02;;;;;;;;;;;;;;;19.50;73.09;102116.84;5234961;28;20032;-71
2022/06/13 07:48:33;;;;;;;9.88;2.92;;;;;;;18.82;71.54;102111.41;5234829;28;20493;-70
2022/06/13 07:51:08;;;;;;;6.88;2.70;;;;;;;18.91;72.51;102119.28;5235948;28;20025;-70
2022/06/13 07:53:39;;;;;;;6.35;1.88;;;;;;;19.02;73.89;102120.06;5234505;28;20033;-69
2022/06/13 07:56:17;;;;;;;8.07;2.20;;;;;;;19.20;71.12;102119.00;5236126;28;20033;-70
2022/06/13 07:58:51;;;;;;;5.75;2.50;;;;;;;19.38;74.81;102128.75;5235706;28;20029;-71
2022/06/13 08:01:23;;;;;;;7.85;2.42;;;;;;;19.34;70.03;102133.53;5235269;28;20083;-69
2022/06/13 08:03:55;;;;;;;7.63;3.00;;;;;;;19.37;67.92;102132.41;5234234;28;20587;-69
2022/06/13 08:06:27;;;;;;;7.07;2.85;;;;;;;19.57;72.26;102128.53;5235346;28;20025;-70
2022/06/13 08:08:58;;;;;;;6.40;2.03;;;;;;;19.60;71.00;102133.53;5235110;28;20550;-70
2022/06/13 08:11:34;;;;;;;10.07;2.70;;;;;;;19.65;69.36;102136.56;5234536;28;20104;-69
2022/06/13 08:14:06;;;;;;;8.07;3.45;;;;;;;19.54;68.46;102149.28;5234710;28;20017;-69
2022/06/13 08:16:37;;;;;;;11.43;3.40;;;;;;;19.55;66.54;102145.66;5234724;28;20053;-69
2022/06/13 08:19:09;;;;;;;10.30;3.83;;;;;;;19.86;71.69;102153.97;5233465;28;21022;-70
2022/06/13 08:21:40;;;;;;;9.73;3.87;;;;;;;20.08;68.76;102142.78;5235502;28;20029;-69
2022/06/13 08:24:12;;;;;;;11.10;3.57;;;;;;;20.13;68.41;102143.09;5235485;28;20348;-70
2022/06/13 08:26:43;;;;;;;7.93;3.17;;;;;;;20.04;65.56;102145.88;5233492;28;20100;-70
2022/06/13 08:29:14;;;;;;;5.73;2.50;;;;;;;19.88;66.89;102158.13;5234691;28;20067;-70
2022/06/13 08:31:46;;;;;;;4.83;2.17;;;;;;;19.63;65.35;102161.66;5234769;28;20025;-70
2022/06/13 08:34:17;;;;;;;5.30;2.00;;;;;;;19.47;65.09;102158.88;5234507;28;20029;-70
2022/06/13 08:36:49;;;;;;;5.10;2.03;;;;;;;19.23;66.11;102162.19;5234134;28;20499;-70
2022/06/13 08:39:20;;;;;;;8.67;2.43;;;;;;;19.41;66.68;102163.00;5235175;28;20024;-70
2022/06/13 08:41:55;;;;;;;9.23;2.97;;;;;;;19.69;68.68;102161.84;5234686;28;20388;-70
2022/06/13 08:44:32;;;;;;;7.50;2.10;;;;;;;20.04;70.82;102164.50;5234254;28;20021;-71
2022/06/13 08:47:32;;;;;;;7.65;1.95;;;;;;;20.40;67.54;102165.13;5216378;28;20033;-71
2022/06/13 08:50:46;;;;;;;5.35;1.77;;;;;;;20.74;66.05;102164.25;5233116;28;20035;-71
2022/06/13 08:53:24;;;;;;;6.43;1.98;;;;;;;20.96;64.60;102163.59;5232839;28;20101;-71
2022/06/13 08:56:02;;;;;;;6.57;2.17;;;;;;;21.06;60.48;102169.59;5231933;28;20039;-71
2022/06/13 08:58:45;;;;;;;7.22;2.58;;;;;;;21.06;61.04;102166.06;5233021;28;20507;-71
2022/06/13 09:01:22;;;;;;;6.28;2.40;;;;;;;20.63;58.62;102168.03;5233111;28;20443;-71
2022/06/13 09:04:03;;;;;;;8.68;2.85;;;;;;;20.70;58.00;102178.88;5231807;28;20400;-71
2022/06/13 09:06:56;;;;;;;7.60;1.95;;;;;;;20.78;56.17;102179.72;5233845;28;20029;-71
2022/06/13 09:09:41;;;;;;;;;;;;;;;21.19;55.40;102169.06;5234578;28;20432;-71
2022/06/13 09:12:18;;;;;;;3.33;1.25;;;;;;;20.57;56.56;102185.53;5233874;28;20385;-71
2022/06/13 09:15:01;;;;;;;4.45;1.27;;;;;;;20.37;55.59;102202.72;5233985;28;20067;-69
2022/06/13 09:17:35;;;;;;;3.92;1.40;;;;;;;20.18;56.85;102191.34;5234198;28;20497;-69
2022/06/13 09:20:40;;;;;;;4.95;1.20;;;;;;;20.62;56.48;102187.69;5215648;28;20477;-70
2022/06/13 09:23:14;;;;;;;6.03;1.35;;;;;;;20.72;54.30;102204.38;5227794;28;20053;-70
2022/06/13 09:26:18;;;;;;;6.38;1.30;;;;;;;20.79;55.01;102201.84;5232896;28;20510;-70
2022/06/13 09:28:59;;;;;;;;;;;;;;;21.17;52.74;102196.88;5234385;28;20013;-70
2022/06/13 09:35:14;;;;;;;3.85;1.80;;;;;;;20.56;53.14;102204.31;5230299;28;20068;-70
2022/06/13 09:37:56;;;;;;;6.20;2.30;;;;;;;20.30;58.97;102215.84;5231083;28;20029;-70
2022/06/13 09:40:48;;;;;;;6.05;2.45;;;;;;;20.29;59.72;102216.00;5234007;28;20082;-69
2022/06/13 09:43:58;;;;;;;7.60;2.67;;;;;;;20.32;60.89;102226.34;5233897;28;20040;-70
2022/06/13 09:47:04;;;;;;;6.57;1.95;;;;;;;20.19;61.89;102226.75;5192068;28;20037;-70
2022/06/13 09:50:04;;;;;;;4.88;1.60;;;;;;;20.05;62.34;102222.91;5223315;28;20057;-70
2022/06/13 09:52:50;;;;;;;6.82;1.77;;;;;;;20.06;61.32;102224.56;5229251;28;20109;-70
2022/06/13 09:55:33;;;;;;;4.07;1.80;;;;;;;19.97;63.68;102227.34;5230076;28;20069;-70
2022/06/13 09:58:28;;;;;;;7.38;2.45;;;;;;;20.05;61.62;102222.91;5231638;28;20063;-70
2022/06/13 10:01:07;;;;;;;3.70;2.05;;;;;;;20.09;63.94;102228.72;5231086;28;21513;-70
2022/06/13 10:04:00;;;;;;;5.15;2.28;;;;;;;20.34;60.68;102229.66;5232938;28;20105;-70
2022/06/13 10:06:41;;;;;;;3.70;1.60;;;;;;;20.24;58.69;102232.47;5231759;28;20460;-70
2022/06/13 10:09:44;;;;;;;3.63;1.02;;;;;;;20.39;57.82;102238.84;5230450;28;20029;-70
2022/06/13 10:12:16;;;;;;;;;;;;;;;20.80;55.79;102227.50;5232433;28;20021;-70
2022/06/13 10:15:04;;;;;;;5.07;1.58;;;;;;;20.22;55.06;102244.25;5232937;28;19963;-70
2022/06/13 10:18:02;;;;;;;8.15;1.60;;;;;;;20.51;57.74;102234.09;5231320;28;20062;-70
2022/06/13 10:20:55;;;;;;;5.18;1.50;;;;;;;20.66;57.27;102236.97;5235118;28;20032;-70
2022/06/13 10:23:26;;;;;;;;;;;;;;;21.31;57.37;102228.22;5237373;28;20034;-70
2022/06/13 10:26:24;;;;;;;4.90;1.70;;;;;;;21.23;56.11;102236.22;5236087;28;19920;-70
2022/06/13 10:29:29;;;;;;;6.90;3.08;;;;;;;21.31;55.54;102230.88;5181280;28;20338;-70
2022/06/13 10:32:20;;;;;;;5.30;2.25;;;;;;;20.97;54.86;102231.03;5235733;28;20079;-69
2022/06/13 10:34:57;;;;;;;3.97;1.42;;;;;;;20.73;55.48;102235.31;5218484;28;20029;-69
2022/06/13 10:38:20;;;;;;;4.43;1.50;;;;;;;21.22;54.48;102232.72;5236484;28;20051;-69
2022/06/13 10:40:51;;;;;;;4.55;2.10;;;;;;;21.02;54.71;102221.53;5151086;29;20046;-70
2022/06/13 10:43:23;;;;;;;5.17;1.50;;;;;;;21.37;57.29;102225.75;5150304;28;20031;-69
2022/06/13 10:45:55;;;;;;;5.03;1.40;;;;;;;21.66;55.10;102218.19;5205993;28;20052;-69
2022/06/13 10:48:45;;;;;;;4.90;1.30;;;;;;;21.89;53.41;102224.47;5236777;28;20064;-69
2022/06/13 10:51:16;;;;;;;4.15;1.02;;;;;;;21.37;51.82;102225.75;5236516;28;20026;-69
2022/06/13 10:53:54;;;;;;;3.63;1.10;;;;;;;21.69;55.25;102234.69;5217365;28;20439;-69
2022/06/13 10:56:33;;;;;;;4.30;1.50;;;;;;;21.82;52.31;102236.81;5236557;28;20029;-69
2022/06/13 10:59:04;;;;;;;4.10;1.55;;;;;;;21.77;51.88;102236.50;5235748;28;20025;-69
2022/06/13 11:01:53;;;;;;;5.37;2.20;;;;;;;21.69;53.68;102231.19;5236851;28;20111;-69
2022/06/13 11:04:24;;;;;;;6.45;2.15;;;;;;;21.29;50.43;102225.72;5237074;28;20479;-69
2022/06/13 11:07:03;;;;;;;4.60;1.67;;;;;;;21.22;50.99;102240.72;5237368;28;20053;-69
2022/06/13 11:09:40;;;;;;;5.57;1.42;;;;;;;20.77;50.11;102244.66;5233681;28;20044;-70
2022/06/13 11:12:33;;;;;;;5.65;1.15;;;;;;;21.29;51.40;102240.84;5237130;28;20104;-69
2022/06/13 11:24:22;;;;;;;3.72;1.30;;;;;;;21.41;49.44;102242.25;5236156;28;20489;-69
2022/06/13 11:29:43;;;;;;;5.20;1.40;;;;;;;21.45;47.93;102246.22;5235539;28;20038;-69
2022/06/13 11:32:21;;;;;;;6.87;1.67;;;;;;;21.73;47.69;102249.34;5235158;28;20389;-69
2022/06/13 11:34:52;;;;;;;3.47;1.08;;;;;;;21.61;42.14;102248.88;5236359;28;20100;-69
2022/06/13 11:37:25;;;;;;;3.43;1.03;;;;;;;21.69;43.59;102234.69;5235635;28;20127;-69
2022/06/13 11:39:59;;;;;;;4.30;1.20;;;;;;;21.96;45.58;102230.78;5218777;28;20024;-69
2022/06/13 11:42:31;;;;;;;7.50;1.67;;;;;;;22.03;47.92;102230.94;5237113;28;20099;-69
2022/06/13 11:45:07;;;;;;;3.17;1.10;;;;;;;21.99;46.46;102240.31;5236022;28;20027;-69
2022/06/13 11:47:47;;;;;;;4.60;1.40;;;;;;;22.03;45.44;102244.28;5234970;28;21149;-69
2022/06/13 11:50:19;;;;;;;4.88;1.00;;;;;;;21.72;45.85;102244.19;5235612;28;20021;-70
2022/06/13 11:55:54;;;;;;;2.90;1.05;;;;;;;22.04;48.00;102240.59;5236199;28;20033;-69
2022/06/13 11:58:28;;;;;;;4.20;1.15;;;;;;;22.25;47.29;102240.06;5236224;28;20455;-70
2022/06/13 12:01:23;;;;;;;3.63;1.20;;;;;;;22.54;43.96;102248.28;5236283;28;20025;-69
2022/06/13 12:04:02;;;;;;;3.60;1.10;;;;;;;22.51;45.66;102251.31;5224287;28;20045;-70
2022/06/13 12:06:40;;;;;;;3.20;0.90;;;;;;;22.51;44.53;102240.63;5234825;28;20045;-70
2022/06/13 12:09:19;;;;;;;2.83;1.00;;;;;;;22.64;40.98;102241.88;5234811;28;20521;-70
2022/06/13 12:12:05;;;;;;;4.47;1.42;;;;;;;22.45;42.45;102238.63;5233593;28;20044;-70
2022/06/13 12:14:40;;;;;;;3.20;1.30;;;;;;;22.06;44.33;102259.97;5233319;28;20021;-70
2022/06/13 12:17:30;;;;;;;5.93;1.40;;;;;;;21.50;45.78;102253.72;5234341;28;20091;-70
2022/06/13 12:20:04;;;;;;;3.33;1.38;;;;;;;21.44;45.25;102251.72;5235600;28;20025;-70
2022/06/13 12:22:44;;;;;;;3.00;1.10;;;;;;;21.56;43.52;102259.22;5234854;28;20115;-70
2022/06/13 12:25:23;;;;;;;5.50;1.27;;;;;;;21.81;42.24;102269.84;5236265;28;20021;-70
2022/06/13 12:28:03;;;;;;;3.50;1.13;;;;;;;21.86;41.35;102267.53;5235034;28;20021;-70
2022/06/13 12:30:40;;;;;;;4.25;1.05;;;;;;;21.82;43.45;102261.69;5232494;28;20033;-69
2022/06/13 12:33:38;;;;;;;3.85;1.17;;;;;;;22.17;42.18;102261.47;5234113;28;20029;-69
2022/06/13 12:36:18;;;;;;;4.88;1.60;;;;;;;22.44;42.07;102253.00;5232426;28;20123;-70
2022/06/13 12:39:28;;;;;;;4.35;1.20;;;;;;;22.79;42.77;102250.81;5233900;28;20432;-70
2022/06/13 12:42:27;;;;;;;3.85;1.15;;;;;;;23.00;43.39;102269.75;5233951;28;20068;-70
2022/06/13 12:45:36;;;;;;;4.80;1.20;;;;;;;22.94;41.26;102264.28;5220307;28;20044;-67